createdAt,value
2019-03-28T00:00:11.394Z,76.72
2019-03-28T00:01:11.383Z,76.58
2019-03-28T00:02:11.785Z,76.99
2019-03-28T00:03:11.384Z,77.03
2019-03-28T00:04:11.350Z,77.03
2019-03-28T00:05:11.338Z,76.92
2019-03-28T00:06:11.331Z,77.13
2019-03-28T00:07:11.317Z,77.23
2019-03-28T00:08:12.691Z,77.03
2019-03-28T00:09:11.308Z,76.72
2019-03-28T00:10:11.285Z,77.03
2019-03-28T00:11:11.274Z,77.03
2019-03-28T00:12:11.263Z,77.23
2019-03-28T00:13:11.255Z,77.44
2019-03-28T00:14:11.241Z,77.44
2019-03-28T00:15:11.240Z,77.23
2019-03-28T00:16:11.219Z,76.92
2019-03-28T00:17:11.208Z,77.54
2019-03-28T00:18:11.197Z,77.64
2019-03-28T00:19:11.187Z,77.64
2019-03-28T00:20:11.177Z,77.23
2019-03-28T00:21:11.175Z,77.33
2019-03-28T00:22:11.156Z,77.44
2019-03-28T00:23:11.142Z,77.44
2019-03-28T00:24:11.131Z,77.33
2019-03-28T00:25:11.124Z,77.95
2019-03-28T00:26:11.108Z,77.44
2019-03-28T00:27:11.126Z,77.74
2019-03-28T00:28:11.291Z,77.23
2019-03-28T00:29:11.079Z,77.26
2019-03-28T00:30:11.065Z,77.98
2019-03-28T00:31:11.055Z,77.23
2019-03-28T00:32:11.045Z,77.95
2019-03-28T00:33:11.044Z,77.84
2019-03-28T00:34:11.022Z,77.78
2019-03-28T00:35:11.012Z,78.05
2019-03-28T00:36:11.001Z,77.98
2019-03-28T00:37:11.006Z,78.29
2019-03-28T00:38:10.978Z,78.50
2019-03-28T00:39:10.980Z,78.50
2019-03-28T00:40:10.955Z,78.19
2019-03-28T00:41:10.948Z,78.60
2019-03-28T00:42:10.934Z,78.70
2019-03-28T00:43:10.923Z,78.39
2019-03-28T00:44:10.912Z,78.60
2019-03-28T00:45:10.922Z,78.39
2019-03-28T00:46:10.890Z,78.77
2019-03-28T00:47:11.130Z,78.46
2019-03-28T00:48:10.868Z,78.56
2019-03-28T00:49:10.862Z,78.39
2019-03-28T00:50:10.847Z,78.39
2019-03-28T00:51:10.845Z,78.39
2019-03-28T00:52:10.827Z,78.67
2019-03-28T00:53:10.813Z,78.87
2019-03-28T00:54:10.801Z,78.77
2019-03-28T00:55:11.300Z,78.36
2019-03-28T00:56:10.779Z,78.81
2019-03-28T00:57:10.779Z,78.67
2019-03-28T00:58:10.759Z,78.77
2019-03-28T00:59:10.746Z,78.77
2019-03-28T01:00:10.737Z,78.56
2019-03-28T01:01:10.725Z,78.77
2019-03-28T01:02:10.714Z,78.81
2019-03-28T01:03:11.167Z,79.01
2019-03-28T01:04:10.694Z,79.01
2019-03-28T01:05:10.681Z,79.11
2019-03-28T01:06:10.670Z,78.91
2019-03-28T01:07:10.659Z,78.81
2019-03-28T01:08:10.649Z,78.97
2019-03-28T01:09:10.647Z,78.97
2019-03-28T01:10:10.629Z,79.22
2019-03-28T01:11:10.615Z,79.22
2019-03-28T01:12:10.603Z,79.22
2019-03-28T01:13:10.592Z,79.22
2019-03-28T01:14:10.585Z,79.08
2019-03-28T01:15:10.580Z,79.32
2019-03-28T01:16:10.561Z,79.32
2019-03-28T01:17:10.551Z,79.32
2019-03-28T01:18:10.539Z,79.42
2019-03-28T01:19:10.533Z,79.52
2019-03-28T01:20:10.516Z,79.42
2019-03-28T01:21:10.514Z,79.52
2019-03-28T01:22:10.494Z,79.83
2019-03-28T01:23:10.482Z,79.63
2019-03-28T01:24:10.740Z,79.73
2019-03-28T01:25:10.461Z,79.66
2019-03-28T01:26:10.450Z,80.14
2019-03-28T01:27:10.459Z,80.07
2019-03-28T01:28:10.428Z,79.97
2019-03-28T01:29:10.417Z,80.49
2019-03-28T01:30:10.406Z,80.38
2019-03-28T01:31:10.457Z,80.38
2019-03-28T01:32:10.387Z,80.49
2019-03-28T01:33:10.397Z,80.58
2019-03-28T01:34:10.364Z,80.90
2019-03-28T01:35:10.352Z,80.79
2019-03-28T01:36:10.341Z,80.58
2019-03-28T01:37:10.330Z,80.49
2019-03-28T01:38:10.319Z,80.79
2019-03-28T01:39:10.356Z,80.69
2019-03-28T01:40:10.300Z,80.90
2019-03-28T01:41:10.287Z,80.93
2019-03-28T01:42:10.276Z,81.20
2019-03-28T01:43:10.265Z,80.93
2019-03-28T01:44:10.255Z,81.10
2019-03-28T01:45:10.255Z,81.00
2019-03-28T01:46:10.233Z,80.90
2019-03-28T01:47:10.223Z,80.79
2019-03-28T01:48:10.215Z,80.90
2019-03-28T01:49:10.201Z,80.90
2019-03-28T01:50:10.189Z,80.90
2019-03-28T01:51:10.189Z,80.79
2019-03-28T01:52:10.168Z,81.00
2019-03-28T01:53:10.163Z,80.90
2019-03-28T01:54:10.145Z,81.00
2019-03-28T01:55:10.136Z,80.90
2019-03-28T01:56:10.123Z,80.90
2019-03-28T01:57:11.503Z,81.10
2019-03-28T01:58:10.102Z,81.10
2019-03-28T01:59:10.095Z,80.58
2019-03-28T02:00:10.084Z,81.10
2019-03-28T02:01:10.070Z,81.00
2019-03-28T02:02:10.059Z,80.90
2019-03-28T02:03:10.060Z,80.69
2019-03-28T02:04:10.038Z,81.14
2019-03-28T02:05:10.032Z,81.00
2019-03-28T02:06:10.016Z,81.20
2019-03-28T02:07:10.007Z,81.34
2019-03-28T02:08:09.995Z,81.45
2019-03-28T02:09:10.000Z,81.41
2019-03-28T02:10:09.972Z,80.83
2019-03-28T02:11:09.962Z,81.34
2019-03-28T02:12:09.950Z,81.41
2019-03-28T02:13:09.941Z,81.45
2019-03-28T02:14:09.929Z,81.24
2019-03-28T02:15:09.931Z,81.55
2019-03-28T02:16:09.908Z,81.55
2019-03-28T02:17:09.897Z,81.51
2019-03-28T02:18:09.886Z,81.45
2019-03-28T02:19:09.876Z,81.41
2019-03-28T02:20:10.321Z,81.76
2019-03-28T02:21:09.873Z,81.24
2019-03-28T02:22:09.846Z,81.51
2019-03-28T02:23:10.363Z,81.76
2019-03-28T02:24:09.822Z,81.96
2019-03-28T02:25:09.811Z,81.65
2019-03-28T02:26:09.802Z,81.45
2019-03-28T02:27:09.805Z,81.55
2019-03-28T02:28:09.780Z,81.65
2019-03-28T02:29:09.772Z,81.51
2019-03-28T02:30:09.763Z,81.51
2019-03-28T02:31:09.751Z,81.62
2019-03-28T02:32:09.739Z,82.03
2019-03-28T02:33:09.749Z,81.41
2019-03-28T02:34:09.717Z,81.62
2019-03-28T02:35:09.708Z,81.71
2019-03-28T02:36:09.694Z,81.71
2019-03-28T02:37:09.684Z,82.03
2019-03-28T02:38:09.675Z,82.06
2019-03-28T02:39:09.682Z,81.62
2019-03-28T02:40:09.653Z,81.76
2019-03-28T02:41:09.641Z,81.96
2019-03-28T02:42:09.633Z,81.51
2019-03-28T02:43:09.623Z,81.51
2019-03-28T02:44:09.613Z,81.45
2019-03-28T02:45:09.609Z,81.65
2019-03-28T02:46:09.586Z,81.96
2019-03-28T02:47:09.579Z,81.65
2019-03-28T02:48:09.565Z,82.17
2019-03-28T02:49:09.554Z,81.65
2019-03-28T02:50:09.543Z,81.76
2019-03-28T02:51:09.545Z,82.23
2019-03-28T02:52:09.534Z,82.06
2019-03-28T02:53:09.519Z,82.47
2019-03-28T02:54:09.508Z,81.86
2019-03-28T02:55:09.489Z,82.17
2019-03-28T02:56:09.481Z,81.86
2019-03-28T02:57:09.479Z,82.17
2019-03-28T02:58:10.775Z,81.86
2019-03-28T02:59:09.448Z,81.65
2019-03-28T03:00:09.437Z,82.17
2019-03-28T03:01:09.473Z,82.27
2019-03-28T03:02:09.415Z,82.57
2019-03-28T03:03:09.417Z,81.96
2019-03-28T03:04:09.433Z,81.96
2019-03-28T03:05:09.382Z,81.96
2019-03-28T03:06:09.374Z,82.37
2019-03-28T03:07:09.362Z,81.86
2019-03-28T03:08:09.358Z,82.47
2019-03-28T03:09:09.355Z,82.27
2019-03-28T03:10:09.338Z,81.96
2019-03-28T03:11:09.653Z,82.37
2019-03-28T03:12:09.310Z,82.37
2019-03-28T03:13:09.297Z,82.37
2019-03-28T03:14:09.300Z,82.47
2019-03-28T03:15:09.289Z,82.27
2019-03-28T03:16:09.265Z,81.96
2019-03-28T03:17:09.255Z,82.89
2019-03-28T03:18:09.243Z,82.57
2019-03-28T03:19:09.231Z,82.57
2019-03-28T03:20:09.224Z,82.99
2019-03-28T03:21:09.830Z,82.68
2019-03-28T03:22:09.209Z,82.57
2019-03-28T03:23:09.190Z,82.78
2019-03-28T03:24:09.181Z,82.89
2019-03-28T03:25:09.173Z,82.99
2019-03-28T03:26:09.160Z,83.09
2019-03-28T03:27:09.191Z,82.99
2019-03-28T03:28:09.137Z,82.78
2019-03-28T03:29:09.125Z,82.78
2019-03-28T03:30:09.145Z,82.89
2019-03-28T03:31:09.116Z,82.99
2019-03-28T03:32:09.092Z,82.78
2019-03-28T03:33:09.546Z,82.99
2019-03-28T03:34:09.076Z,82.89
2019-03-28T03:35:09.062Z,82.68
2019-03-28T03:36:09.048Z,82.68
2019-03-28T03:37:09.038Z,82.62
2019-03-28T03:38:09.026Z,82.89
2019-03-28T03:39:09.040Z,82.78
2019-03-28T03:40:09.011Z,82.89
2019-03-28T03:41:08.995Z,82.99
2019-03-28T03:42:08.984Z,82.68
2019-03-28T03:43:08.973Z,82.57
2019-03-28T03:44:08.964Z,82.68
2019-03-28T03:45:09.592Z,83.19
2019-03-28T03:46:08.945Z,83.19
2019-03-28T03:47:08.930Z,82.78
2019-03-28T03:48:08.942Z,82.57
2019-03-28T03:49:08.907Z,82.89
2019-03-28T03:50:08.902Z,82.57
2019-03-28T03:51:08.897Z,83.13
2019-03-28T03:52:08.898Z,82.68
2019-03-28T03:53:08.865Z,82.82
2019-03-28T03:54:08.854Z,82.68
2019-03-28T03:55:08.848Z,82.78
2019-03-28T03:56:08.839Z,82.82
2019-03-28T03:57:08.837Z,82.57
2019-03-28T03:58:16.228Z,82.99
2019-03-28T03:59:09.804Z,82.99
2019-03-28T04:00:08.802Z,83.09
2019-03-28T04:01:08.782Z,82.57
2019-03-28T04:02:08.773Z,83.19
2019-03-28T04:03:08.771Z,82.78
2019-03-28T04:04:08.767Z,82.78
2019-03-28T04:05:08.747Z,83.09
2019-03-28T04:06:08.726Z,82.82
2019-03-28T04:07:08.734Z,83.09
2019-03-28T04:08:08.705Z,82.99
2019-03-28T04:09:08.716Z,83.03
2019-03-28T04:10:08.682Z,82.82
2019-03-28T04:11:08.690Z,83.64
2019-03-28T04:12:08.662Z,83.54
2019-03-28T04:13:08.655Z,83.85
2019-03-28T04:14:08.641Z,83.95
2019-03-28T04:15:08.642Z,83.95
2019-03-28T04:16:08.624Z,84.26
2019-03-28T04:17:08.608Z,83.70
2019-03-28T04:18:08.607Z,83.95
2019-03-28T04:19:08.587Z,83.85
2019-03-28T04:20:08.578Z,83.85
2019-03-28T04:21:08.580Z,84.01
2019-03-28T04:22:09.938Z,83.75
2019-03-28T04:23:08.545Z,83.75
2019-03-28T04:24:08.534Z,83.95
2019-03-28T04:25:08.524Z,83.85
2019-03-28T04:26:08.514Z,83.75
2019-03-28T04:27:08.516Z,83.95
2019-03-28T04:28:08.493Z,83.95
2019-03-28T04:29:08.492Z,84.22
2019-03-28T04:30:08.473Z,84.36
2019-03-28T04:31:08.457Z,84.36
2019-03-28T04:32:08.448Z,84.12
2019-03-28T04:33:08.447Z,84.22
2019-03-28T04:34:09.541Z,83.95
2019-03-28T04:35:08.417Z,84.05
2019-03-28T04:36:08.405Z,84.16
2019-03-28T04:37:08.396Z,84.05
2019-03-28T04:38:08.389Z,83.95
2019-03-28T04:39:08.384Z,83.95
2019-03-28T04:40:08.752Z,84.05
2019-03-28T04:41:08.349Z,84.05
2019-03-28T04:42:08.338Z,84.05
2019-03-28T04:43:08.328Z,84.05
2019-03-28T04:44:08.317Z,84.16
2019-03-28T04:45:08.320Z,83.95
2019-03-28T04:46:08.295Z,84.05
2019-03-28T04:47:08.284Z,84.05
2019-03-28T04:48:08.273Z,83.95
2019-03-28T04:49:08.263Z,83.95
2019-03-28T04:50:08.253Z,84.32
2019-03-28T04:51:08.250Z,84.16
2019-03-28T04:52:08.232Z,83.95
2019-03-28T04:53:08.218Z,83.95
2019-03-28T04:54:09.856Z,83.95
2019-03-28T04:55:08.198Z,83.95
2019-03-28T04:56:08.187Z,84.16
2019-03-28T04:57:08.186Z,84.05
2019-03-28T04:58:08.165Z,84.05
2019-03-28T04:59:08.154Z,84.05
2019-03-28T05:00:08.147Z,84.05
2019-03-28T05:01:08.132Z,84.05
2019-03-28T05:02:08.121Z,84.05
2019-03-28T05:03:08.120Z,83.75
2019-03-28T05:04:08.100Z,83.95
2019-03-28T05:05:08.091Z,84.05
2019-03-28T05:06:08.078Z,83.89
2019-03-28T05:07:08.066Z,84.67
2019-03-28T05:08:08.440Z,84.67
2019-03-28T05:09:08.054Z,84.67
2019-03-28T05:10:08.033Z,84.67
2019-03-28T05:11:08.022Z,84.67
2019-03-28T05:12:08.011Z,84.26
2019-03-28T05:13:08.001Z,84.30
2019-03-28T05:14:07.998Z,84.36
2019-03-28T05:15:07.998Z,84.26
2019-03-28T05:16:07.968Z,84.26
2019-03-28T05:17:07.958Z,84.47
2019-03-28T05:18:07.947Z,84.47
2019-03-28T05:19:07.940Z,84.50
2019-03-28T05:20:08.002Z,84.36
2019-03-28T05:21:07.926Z,84.40
2019-03-28T05:22:07.904Z,84.16
2019-03-28T05:23:07.893Z,84.40
2019-03-28T05:24:07.894Z,84.40
2019-03-28T05:25:07.872Z,84.26
2019-03-28T05:26:07.860Z,84.40
2019-03-28T05:27:07.861Z,84.40
2019-03-28T05:28:07.839Z,84.26
2019-03-28T05:29:07.829Z,84.40
2019-03-28T05:30:07.818Z,84.56
2019-03-28T05:31:08.361Z,84.50
2019-03-28T05:32:07.796Z,84.50
2019-03-28T05:33:07.806Z,84.88
2019-03-28T05:34:08.352Z,84.91
2019-03-28T05:35:07.763Z,84.67
2019-03-28T05:36:07.756Z,84.91
2019-03-28T05:37:07.744Z,84.77
2019-03-28T05:38:07.733Z,84.50
2019-03-28T05:39:07.734Z,84.81
2019-03-28T05:40:07.712Z,84.81
2019-03-28T05:41:07.700Z,84.77
2019-03-28T05:42:07.690Z,84.77
2019-03-28T05:43:07.679Z,84.91
2019-03-28T05:44:07.674Z,84.71
2019-03-28T05:45:07.668Z,84.71
2019-03-28T05:46:07.646Z,84.88
2019-03-28T05:47:07.637Z,84.71
2019-03-28T05:48:07.625Z,84.88
2019-03-28T05:49:07.614Z,84.88
2019-03-28T05:50:07.603Z,85.02
2019-03-28T05:51:07.603Z,85.08
2019-03-28T05:52:07.584Z,84.77
2019-03-28T05:53:07.571Z,84.81
2019-03-28T05:54:07.564Z,84.77
2019-03-28T05:55:07.551Z,84.77
2019-03-28T05:56:07.540Z,84.77
2019-03-28T05:57:07.539Z,84.77
2019-03-28T05:58:09.596Z,84.81
2019-03-28T05:59:11.219Z,84.98
2019-03-28T06:00:07.497Z,84.56
2019-03-28T06:01:07.486Z,84.67
2019-03-28T06:02:07.475Z,84.88
2019-03-28T06:03:07.475Z,84.36
2019-03-28T06:04:08.349Z,84.47
2019-03-28T06:05:07.450Z,84.47
2019-03-28T06:06:07.431Z,84.16
2019-03-28T06:07:08.756Z,84.67
2019-03-28T06:08:07.410Z,84.61
2019-03-28T06:09:07.410Z,84.88
2019-03-28T06:10:07.389Z,84.67
2019-03-28T06:11:07.378Z,84.47
2019-03-28T06:12:07.368Z,84.36
2019-03-28T06:13:07.357Z,84.47
2019-03-28T06:14:07.344Z,84.16
2019-03-28T06:15:07.353Z,84.32
2019-03-28T06:16:07.328Z,84.22
2019-03-28T06:17:07.311Z,84.42
2019-03-28T06:18:07.300Z,84.01
2019-03-28T06:19:07.289Z,83.70
2019-03-28T06:20:07.278Z,83.91
2019-03-28T06:21:07.278Z,83.64
2019-03-28T06:22:07.257Z,84.42
2019-03-28T06:23:07.285Z,84.42
2019-03-28T06:24:07.237Z,84.63
2019-03-28T06:25:07.223Z,84.63
2019-03-28T06:26:07.217Z,83.91
2019-03-28T06:27:07.566Z,83.81
2019-03-28T06:28:07.190Z,84.32
2019-03-28T06:29:08.592Z,84.53
2019-03-28T06:30:07.168Z,84.22
2019-03-28T06:31:07.160Z,84.53
2019-03-28T06:32:07.147Z,83.81
2019-03-28T06:33:07.169Z,83.61
2019-03-28T06:34:07.125Z,84.08
2019-03-28T06:35:07.114Z,83.77
2019-03-28T06:36:07.104Z,83.77
2019-03-28T06:37:07.093Z,83.87
2019-03-28T06:38:07.085Z,84.08
2019-03-28T06:39:07.090Z,83.67
2019-03-28T06:40:07.068Z,83.15
2019-03-28T06:41:07.050Z,83.05
2019-03-28T06:42:07.041Z,82.84
2019-03-28T06:43:07.029Z,82.84
2019-03-28T06:44:07.019Z,82.95
2019-03-28T06:45:07.019Z,82.91
2019-03-28T06:46:06.997Z,82.64
2019-03-28T06:47:06.987Z,82.81
2019-03-28T06:48:06.975Z,83.15
2019-03-28T06:49:06.963Z,82.50
2019-03-28T06:50:06.953Z,83.12
2019-03-28T06:51:06.953Z,82.60
2019-03-28T06:52:06.932Z,82.60
2019-03-28T06:53:06.922Z,82.50
2019-03-28T06:54:06.910Z,82.91
2019-03-28T06:55:06.899Z,82.60
2019-03-28T06:56:06.888Z,82.81
2019-03-28T06:57:06.888Z,82.50
2019-03-28T06:58:06.868Z,82.81
2019-03-28T06:59:06.856Z,82.95
2019-03-28T07:00:06.922Z,82.43
2019-03-28T07:01:06.834Z,83.36
2019-03-28T07:02:06.823Z,82.84
2019-03-28T07:03:06.830Z,82.29
2019-03-28T07:04:06.801Z,83.36
2019-03-28T07:05:06.793Z,82.40
2019-03-28T07:06:06.781Z,82.75
2019-03-28T07:07:06.865Z,82.75
2019-03-28T07:08:06.760Z,82.91
2019-03-28T07:09:06.762Z,83.05
2019-03-28T07:10:06.738Z,83.15
2019-03-28T07:11:06.727Z,82.50
2019-03-28T07:12:06.718Z,82.64
2019-03-28T07:13:06.706Z,82.91
2019-03-28T07:14:06.694Z,82.60
2019-03-28T07:15:06.698Z,82.81
2019-03-28T07:16:06.673Z,82.70
2019-03-28T07:17:06.662Z,82.60
2019-03-28T07:18:06.652Z,82.70
2019-03-28T07:19:06.644Z,82.60
2019-03-28T07:20:08.989Z,82.70
2019-03-28T07:21:06.630Z,82.19
2019-03-28T07:22:06.609Z,82.50
2019-03-28T07:23:06.599Z,82.09
2019-03-28T07:24:06.589Z,82.29
2019-03-28T07:25:06.595Z,82.40
2019-03-28T07:26:06.566Z,82.29
2019-03-28T07:27:06.566Z,82.29
2019-03-28T07:28:06.733Z,81.99
2019-03-28T07:29:06.534Z,82.81
2019-03-28T07:30:06.525Z,82.91
2019-03-28T07:31:06.514Z,82.50
2019-03-28T07:32:06.507Z,82.60
2019-03-28T07:33:06.502Z,82.70
2019-03-28T07:34:06.482Z,82.40
2019-03-28T07:35:06.471Z,82.46
2019-03-28T07:36:06.459Z,82.77
2019-03-28T07:37:06.448Z,81.95
2019-03-28T07:38:06.437Z,82.15
2019-03-28T07:39:06.437Z,82.42
2019-03-28T07:40:06.418Z,81.29
2019-03-28T07:41:06.405Z,81.20
2019-03-28T07:42:06.396Z,81.09
2019-03-28T07:43:06.382Z,80.99
2019-03-28T07:44:06.373Z,80.54
2019-03-28T07:45:06.373Z,80.44
2019-03-28T07:46:06.349Z,79.82
2019-03-28T07:47:06.341Z,79.82
2019-03-28T07:48:06.327Z,79.89
2019-03-28T07:49:06.317Z,79.58
2019-03-28T07:50:06.307Z,79.07
2019-03-28T07:51:06.319Z,78.86
2019-03-28T07:52:06.285Z,78.01
2019-03-28T07:53:06.274Z,77.80
2019-03-28T07:54:06.270Z,77.19
2019-03-28T07:55:06.254Z,76.98
2019-03-28T07:56:06.250Z,77.36
2019-03-28T07:57:06.251Z,76.43
2019-03-28T07:58:07.693Z,76.54
2019-03-28T07:59:06.218Z,76.84
2019-03-28T08:00:06.199Z,75.72
2019-03-28T08:01:06.187Z,75.42
2019-03-28T08:02:06.176Z,75.89
2019-03-28T08:03:06.177Z,75.68
2019-03-28T08:04:06.155Z,75.17
2019-03-28T08:05:06.144Z,75.45
2019-03-28T08:06:06.135Z,75.38
2019-03-28T08:07:06.123Z,75.79
2019-03-28T08:08:06.112Z,75.14
2019-03-28T08:09:06.118Z,74.69
2019-03-28T08:10:06.093Z,74.18
2019-03-28T08:11:06.079Z,74.32
2019-03-28T08:12:06.068Z,73.71
2019-03-28T08:13:06.056Z,73.50
2019-03-28T08:14:06.046Z,73.81
2019-03-28T08:15:06.046Z,73.57
2019-03-28T08:16:06.024Z,73.57
2019-03-28T08:17:06.013Z,73.13
2019-03-28T08:18:06.001Z,73.03
2019-03-28T08:19:08.026Z,71.77
2019-03-28T08:20:05.980Z,71.97
2019-03-28T08:21:05.980Z,71.97
2019-03-28T08:22:05.958Z,71.67
2019-03-28T08:23:05.947Z,71.97
2019-03-28T08:24:05.937Z,71.50
2019-03-28T08:25:10.892Z,71.19
2019-03-28T08:26:06.927Z,70.21
2019-03-28T08:27:05.907Z,69.87
2019-03-28T08:28:05.950Z,70.28
2019-03-28T08:29:05.883Z,68.13
2019-03-28T08:30:17.664Z,68.65
2019-03-28T08:31:06.860Z,67.63
2019-03-28T08:32:05.862Z,67.63
2019-03-28T08:33:05.840Z,67.12
2019-03-28T08:34:05.829Z,67.46
2019-03-28T08:35:05.818Z,67.86
2019-03-28T08:36:05.808Z,67.96
2019-03-28T08:37:05.796Z,67.02
2019-03-28T08:38:05.798Z,67.63
2019-03-28T08:39:05.775Z,67.66
2019-03-28T08:40:05.765Z,67.66
2019-03-28T08:41:07.216Z,68.07
2019-03-28T08:42:05.742Z,68.68
2019-03-28T08:43:05.731Z,67.02
2019-03-28T08:44:07.281Z,68.07
2019-03-28T08:45:05.711Z,68.78
2019-03-28T08:46:08.625Z,68.07
2019-03-28T08:47:06.288Z,69.09
2019-03-28T08:48:05.677Z,68.78
2019-03-28T08:49:05.741Z,68.27
2019-03-28T08:50:05.674Z,68.78
2019-03-28T08:51:05.644Z,67.96
2019-03-28T08:52:05.634Z,68.88
2019-03-28T08:53:05.623Z,67.55
2019-03-28T08:54:05.613Z,68.61
2019-03-28T08:55:05.602Z,68.81
2019-03-28T08:56:05.608Z,68.71
2019-03-28T08:57:05.582Z,68.71
2019-03-28T08:58:05.570Z,68.37
2019-03-28T08:59:05.559Z,68.51
2019-03-28T09:00:05.550Z,68.40
2019-03-28T09:01:05.874Z,67.90
2019-03-28T09:02:05.603Z,66.64
2019-03-28T09:03:05.518Z,67.18
2019-03-28T09:04:05.505Z,65.89
2019-03-28T09:05:05.498Z,66.83
2019-03-28T09:06:05.488Z,69.29
2019-03-28T09:07:05.483Z,69.18
2019-03-28T09:08:05.472Z,68.98
2019-03-28T09:09:05.454Z,68.95
2019-03-28T09:10:05.440Z,69.56
2019-03-28T09:11:05.429Z,69.66
2019-03-28T09:12:05.419Z,68.84
2019-03-28T09:13:05.408Z,68.13
2019-03-28T09:14:05.407Z,68.03
2019-03-28T09:15:05.386Z,67.69
2019-03-28T09:16:05.374Z,67.38
2019-03-28T09:17:05.364Z,67.59
2019-03-28T09:18:05.353Z,67.18
2019-03-28T09:19:05.342Z,66.88
2019-03-28T09:20:05.342Z,65.86
2019-03-28T09:21:05.327Z,65.68
2019-03-28T09:22:05.310Z,65.75
2019-03-28T09:23:05.300Z,66.06
2019-03-28T09:24:05.288Z,65.14
2019-03-28T09:25:05.280Z,65.86
2019-03-28T09:26:05.280Z,67.18
2019-03-28T09:27:05.255Z,65.55
2019-03-28T09:28:05.249Z,66.16
2019-03-28T09:29:05.235Z,65.14
2019-03-28T09:30:05.222Z,64.70
2019-03-28T09:31:18.965Z,65.52
2019-03-28T09:32:06.212Z,63.89
2019-03-28T09:33:05.190Z,65.42
2019-03-28T09:34:05.179Z,65.22
2019-03-28T09:35:05.166Z,66.00
2019-03-28T09:36:05.155Z,66.71
2019-03-28T09:37:05.146Z,66.41
2019-03-28T09:38:05.161Z,66.30
2019-03-28T09:39:05.125Z,66.61
2019-03-28T09:40:05.117Z,66.10
2019-03-28T09:41:05.101Z,65.59
2019-03-28T09:42:05.090Z,66.61
2019-03-28T09:43:05.079Z,65.80
2019-03-28T09:44:05.079Z,65.19
2019-03-28T09:45:05.058Z,65.39
2019-03-28T09:46:05.046Z,64.98
2019-03-28T09:47:05.035Z,66.00
2019-03-28T09:48:05.025Z,65.28
2019-03-28T09:49:05.013Z,65.19
2019-03-28T09:50:05.022Z,67.12
2019-03-28T09:51:04.991Z,65.89
2019-03-28T09:52:04.981Z,65.19
2019-03-28T09:53:04.971Z,65.19
2019-03-28T09:54:04.959Z,65.39
2019-03-28T09:55:04.948Z,66.20
2019-03-28T09:56:04.959Z,65.05
2019-03-28T09:57:04.927Z,64.34
2019-03-28T09:58:04.916Z,64.75
2019-03-28T09:59:04.906Z,65.46
2019-03-28T10:00:04.895Z,64.75
2019-03-28T10:01:04.890Z,64.95
2019-03-28T10:02:04.905Z,65.25
2019-03-28T10:03:04.862Z,64.95
2019-03-28T10:04:06.435Z,65.36
2019-03-28T10:05:04.840Z,63.83
2019-03-28T10:06:04.833Z,64.20
2019-03-28T10:07:05.610Z,63.19
2019-03-28T10:08:04.817Z,64.72
2019-03-28T10:09:04.801Z,63.49
2019-03-28T10:10:05.392Z,63.90
2019-03-28T10:11:04.775Z,63.49
2019-03-28T10:12:04.764Z,63.09
2019-03-28T10:13:04.753Z,64.11
2019-03-28T10:14:04.752Z,63.39
2019-03-28T10:15:04.733Z,63.12
2019-03-28T10:16:04.720Z,63.62
2019-03-28T10:17:04.710Z,63.62
2019-03-28T10:18:04.699Z,63.83
2019-03-28T10:19:04.687Z,64.23
2019-03-28T10:20:05.786Z,63.90
2019-03-28T10:21:04.666Z,62.27
2019-03-28T10:22:04.655Z,61.87
2019-03-28T10:23:04.646Z,62.07
2019-03-28T10:24:04.641Z,63.01
2019-03-28T10:25:04.623Z,62.98
2019-03-28T10:26:04.623Z,63.19
2019-03-28T10:27:04.601Z,62.71
2019-03-28T10:28:04.592Z,63.09
2019-03-28T10:29:04.581Z,62.92
2019-03-28T10:30:04.568Z,62.30
2019-03-28T10:31:15.844Z,61.66
2019-03-28T10:32:06.492Z,62.58
2019-03-28T10:33:04.536Z,60.44
2019-03-28T10:34:04.525Z,60.85
2019-03-28T10:35:06.917Z,62.17
2019-03-28T10:36:04.503Z,62.07
2019-03-28T10:37:04.491Z,61.53
2019-03-28T10:38:04.494Z,62.37
2019-03-28T10:39:04.471Z,62.24
2019-03-28T10:40:04.461Z,62.55
2019-03-28T10:41:04.448Z,61.83
2019-03-28T10:42:04.438Z,60.99
2019-03-28T10:43:04.429Z,62.52
2019-03-28T10:44:04.429Z,62.11
2019-03-28T10:45:04.406Z,62.93
2019-03-28T10:46:04.397Z,62.82
2019-03-28T10:47:05.012Z,62.52
2019-03-28T10:48:04.376Z,62.32
2019-03-28T10:49:04.366Z,62.32
2019-03-28T10:50:04.539Z,61.20
2019-03-28T10:51:04.351Z,60.89
2019-03-28T10:52:04.336Z,61.60
2019-03-28T10:53:04.321Z,61.40
2019-03-28T10:54:04.311Z,62.41
2019-03-28T10:55:04.298Z,61.81
2019-03-28T10:56:04.343Z,61.07
2019-03-28T10:57:13.605Z,60.76
2019-03-28T10:58:17.749Z,59.24
2019-03-28T10:59:05.255Z,59.03
2019-03-28T11:00:04.245Z,60.15
2019-03-28T11:01:04.234Z,60.05
2019-03-28T11:02:04.234Z,59.95
2019-03-28T11:03:04.809Z,59.44
2019-03-28T11:04:04.202Z,59.44
2019-03-28T11:05:04.190Z,57.81
2019-03-28T11:06:04.194Z,58.12
2019-03-28T11:07:04.169Z,57.10
2019-03-28T11:08:04.177Z,56.90
2019-03-28T11:09:04.148Z,56.70
2019-03-28T11:10:04.137Z,56.60
2019-03-28T11:11:04.128Z,57.51
2019-03-28T11:12:04.118Z,59.03
2019-03-28T11:13:04.105Z,59.14
2019-03-28T11:14:04.105Z,57.71
2019-03-28T11:15:04.083Z,57.74
2019-03-28T11:16:04.075Z,57.74
2019-03-28T11:17:04.062Z,58.45
2019-03-28T11:18:04.054Z,58.86
2019-03-28T11:19:04.040Z,58.45
2019-03-28T11:20:04.040Z,57.71
2019-03-28T11:21:04.020Z,56.80
2019-03-28T11:22:04.008Z,56.60
2019-03-28T11:23:03.998Z,56.49
2019-03-28T11:24:03.987Z,58.33
2019-03-28T11:25:03.976Z,56.67
2019-03-28T11:26:03.978Z,56.49
2019-03-28T11:27:03.955Z,57.00
2019-03-28T11:28:03.952Z,57.10
2019-03-28T11:29:03.933Z,56.80
2019-03-28T11:30:03.928Z,56.39
2019-03-28T11:31:03.913Z,56.49
2019-03-28T11:32:03.918Z,56.49
2019-03-28T11:33:06.454Z,56.80
2019-03-28T11:34:03.880Z,57.00
2019-03-28T11:35:03.871Z,57.61
2019-03-28T11:36:03.859Z,58.12
2019-03-28T11:37:03.848Z,58.63
2019-03-28T11:38:03.850Z,57.21
2019-03-28T11:39:03.829Z,57.41
2019-03-28T11:40:03.815Z,57.71
2019-03-28T11:41:03.807Z,56.42
2019-03-28T11:42:03.797Z,57.64
2019-03-28T11:43:03.784Z,58.48
2019-03-28T11:44:03.783Z,58.58
2019-03-28T11:45:03.783Z,58.28
2019-03-28T11:46:03.752Z,58.69
2019-03-28T11:47:03.742Z,57.46
2019-03-28T11:48:03.730Z,58.28
2019-03-28T11:49:03.719Z,58.99
2019-03-28T11:50:03.723Z,57.77
2019-03-28T11:51:03.715Z,57.56
2019-03-28T11:52:03.688Z,56.75
2019-03-28T11:53:03.676Z,56.55
2019-03-28T11:54:03.665Z,56.65
2019-03-28T11:55:03.656Z,58.17
2019-03-28T11:56:03.655Z,58.38
2019-03-28T11:57:03.635Z,57.77
2019-03-28T11:58:03.623Z,57.77
2019-03-28T11:59:04.628Z,57.87
2019-03-28T12:00:03.602Z,56.27
2019-03-28T12:01:03.589Z,56.57
2019-03-28T12:02:19.032Z,56.98
2019-03-28T12:03:04.566Z,56.45
2019-03-28T12:04:03.555Z,53.90
2019-03-28T12:05:03.544Z,54.85
2019-03-28T12:06:03.533Z,56.24
2019-03-28T12:07:03.522Z,57.56
2019-03-28T12:08:03.525Z,58.35
2019-03-28T12:09:03.501Z,56.21
2019-03-28T12:10:03.526Z,56.52
2019-03-28T12:11:03.479Z,56.12
2019-03-28T12:12:03.468Z,55.51
2019-03-28T12:13:03.457Z,56.52
2019-03-28T12:14:03.460Z,57.54
2019-03-28T12:15:03.436Z,56.32
2019-03-28T12:16:03.425Z,54.36
2019-03-28T12:17:03.416Z,53.96
2019-03-28T12:18:03.402Z,52.33
2019-03-28T12:19:03.392Z,53.75
2019-03-28T12:20:03.392Z,52.63
2019-03-28T12:21:03.370Z,53.85
2019-03-28T12:22:03.359Z,52.51
2019-03-28T12:23:03.354Z,53.63
2019-03-28T12:24:03.338Z,52.61
2019-03-28T12:25:03.326Z,52.71
2019-03-28T12:26:03.341Z,52.23
2019-03-28T12:27:03.308Z,52.84
2019-03-28T12:28:03.314Z,54.26
2019-03-28T12:29:05.816Z,54.16
2019-03-28T12:30:03.276Z,53.96
2019-03-28T12:31:03.264Z,53.96
2019-03-28T12:32:13.403Z,54.97
2019-03-28T12:33:04.238Z,54.87
2019-03-28T12:34:03.229Z,54.64
2019-03-28T12:35:03.218Z,53.83
2019-03-28T12:36:03.209Z,52.30
2019-03-28T12:37:03.197Z,52.91
2019-03-28T12:38:03.205Z,52.23
2019-03-28T12:39:03.175Z,52.10
2019-03-28T12:40:03.164Z,52.23
2019-03-28T12:41:03.153Z,52.03
2019-03-28T12:42:03.142Z,53.96
2019-03-28T12:43:03.135Z,53.96
2019-03-28T12:44:03.131Z,54.26
2019-03-28T12:45:03.111Z,53.75
2019-03-28T12:46:03.100Z,53.57
2019-03-28T12:47:03.088Z,54.77
2019-03-28T12:48:03.077Z,54.57
2019-03-28T12:49:03.066Z,54.79
2019-03-28T12:50:03.068Z,54.69
2019-03-28T12:51:03.045Z,55.10
2019-03-28T12:52:03.034Z,54.49